• Join FlightAware (Why Join?)
  • Login
  • US Flag GB Flag 
20:36 EDT


 

Airport Tracker/Info


-or-


 

Live Flight TrackerFlight Track Log ✈ UAL33 ✈ 23-Apr-2013 ✈ KLAX - KJFK

Flight Track Log - Related Links

Times and Time Zones

All times are in EDT time to prevent confusion due to time zone crossing. See the UAL33 flight status page for this flight to view local times or setup timezone preferences in your user account.

Time Position Orientation Groundspeed Altitude Reporting Facility
EDT Latitude Longitude Course Direction KTS MPH feet Rate Location/Type
16:40 33.9370 -118.4460 264° West 193 222 1,700  Level FlightAware
16:40 33.9290 -118.4790 254° West 224 258 2,600 1,860 Climbing FlightAware
16:41 33.9180 -118.4900 220° Southwest 234 269 3,100 1,800 Climbing FlightAware
16:41 33.9040 -118.4970 203° Southwest 254 292 3,500 3,120 Climbing FlightAware
16:41 33.8590 -118.5060 189° South 269 310 5,200 3,900 Climbing FlightAware
16:42 33.8400 -118.5060 180° South 270 311 6,100 3,300 Climbing FlightAware
16:42 33.8090 -118.5080 183° South 272 313 7,400 3,000 Climbing FlightAware
16:42 33.7920 -118.5100 186° South 277 319 8,100 2,760 Climbing FlightAware
16:43 33.7500 -118.5160 187° South 293 337 9,500 2,460 Climbing FlightAware
16:43 33.7160 -118.5130 176° South 302 348 10,400 1,800 Climbing FlightAware
16:43 33.6970 -118.4990 148° Southeast 318 366 10,700 1,380 Climbing FlightAware
16:44 33.6860 -118.4780 122° Southeast 325 374 11,100 2,280 Climbing FlightAware
16:44 33.6660 -118.4080 109° East 338 389 12,800 2,280 Climbing FlightAware
16:45 33.6490 -118.3230 103° East 359 413 14,400 2,220 Climbing FlightAware
16:46 33.6480 -118.2410 91° East 372 428 16,000 2,400 Climbing FlightAware
16:46 33.6480 -118.1500 90° East 383 441 17,800 2,280 Climbing FlightAware
16:47 33.6480 -118.0620 90° East 397 457 19,300 2,040 Climbing FlightAware
16:48 33.6480 -117.9850 90° East 409 471 20,400 1,920 Climbing FlightAware
16:49 33.6480 -117.8660 90° East 425 489 22,100 1,920 Climbing FlightAware
16:49 33.6470 -117.7720 91° East 436 502 23,300 1,800 Climbing FlightAware
16:50 33.6470 -117.6730 90° East 446 513 24,500 1,680 Climbing FlightAware
16:51 33.6470 -117.5640 90° East 457 526 25,700 1,620 Climbing FlightAware
16:51 33.6460 -117.4610 91° East 465 535 26,800 1,500 Climbing FlightAware
16:52 33.6450 -117.3410 91° East 475 547 27,900 1,440 Climbing FlightAware
16:53 33.6450 -117.2360 90° East 482 555 28,900 1,380 Climbing FlightAware
16:53 33.6440 -117.1240 91° East 489 563 29,900 1,380 Climbing FlightAware
16:54 33.6430 -117.0080 91° East 496 571 30,900 1,560 Climbing FlightAware
16:55 33.6420 -116.8980 91° East 495 570 32,000 1,680 Climbing FlightAware
16:55 33.6410 -116.7890 91° East 492 566 33,200 1,620 Climbing FlightAware
16:56 33.6390 -116.6700 91° East 493 567 34,300 1,380 Climbing FlightAware
16:57 33.6380 -116.5550 91° East 492 566 35,200 1,260 Climbing FlightAware
16:57 33.6370 -116.4600 91° East 493 567 35,900 1,020 Climbing FlightAware
16:58 33.6350 -116.3340 91° East 494 568 36,700 720 Climbing FlightAware
16:59 33.6340 -116.2260 91° East 494 568 37,000 300 Climbing FlightAware
16:59 33.6380 -116.1730 85° East 505 581 37,000  Level FlightAware
17:00 33.6800 -116.0290 71° East 503 579 37,000  Level FlightAware
17:01 33.7580 -115.9180 50° Northeast 491 565 37,000  Level FlightAware
17:02 33.8000 -115.8400 57° Northeast 491 565 37,000  Level FlightAware
17:03 33.8530 -115.7420 57° Northeast 491 565 37,000  Level FlightAware
17:03 33.8950 -115.6640 57° Northeast 491 565 37,000  Level FlightAware
17:04 33.9370 -115.5860 57° Northeast 491 565 37,000  Level FlightAware
17:05 33.9790 -115.5080 57° Northeast 491 565 37,000  Level FlightAware
17:05 34.0740 -115.3290 57° Northeast 488 562 37,000  Level FlightAware
17:06 34.1190 -115.2450 57° Northeast 491 565 37,000  Level FlightAware
17:07 34.1610 -115.1640 58° Northeast 493 567 37,000  Level FlightAware
17:07 34.2300 -115.0340 57° Northeast 494 568 37,000  Level FlightAware
17:08 34.2950 -114.9120 57° Northeast 494 568 37,000  Level FlightAware
17:09 34.3490 -114.8080 58° Northeast 497 572 37,000  Level FlightAware
17:10 34.4130 -114.6880 57° Northeast 497 572 37,000  Level FlightAware
17:11 34.4720 -114.5740 58° Northeast 499 574 37,000  Level FlightAware
17:11 34.5170 -114.4880 58° Northeast 498 573 37,000  Level FlightAware
17:12 34.5780 -114.3710 58° Northeast 498 573 37,000  Level FlightAware
17:13 34.6270 -114.2760 58° Northeast 497 572 37,000  Level FlightAware
17:13 34.6770 -114.1800 58° Northeast 497 572 37,000  Level FlightAware
17:14 34.7280 -114.0800 58° Northeast 498 573 37,000  Level FlightAware
17:15 34.7730 -113.9920 58° Northeast 498 573 37,000  Level FlightAware
17:16 34.8270 -113.8880 58° Northeast 499 574 37,000  Level FlightAware
17:16 34.8840 -113.7760 58° Northeast 500 575 37,000  Level FlightAware
17:17 34.9320 -113.6820 58° Northeast 499 574 37,000  Level FlightAware
17:18 34.9850 -113.5790 58° Northeast 501 577 37,000  Level FlightAware
17:18 35.0350 -113.4810 58° Northeast 502 578 37,000  Level FlightAware
17:19 35.0830 -113.3860 58° Northeast 502 578 37,000  Level FlightAware
17:20 35.1410 -113.2730 58° Northeast 505 581 37,000  Level FlightAware
17:20 35.1890 -113.1770 59° Northeast 505 581 37,000  Level FlightAware
17:21 35.2430 -113.0690 59° Northeast 509 586 37,000  Level FlightAware
17:22 35.2930 -112.9710 58° Northeast 510 587 37,000  Level FlightAware
17:23 35.3430 -112.8700 59° Northeast 512 589 37,000  Level FlightAware
17:23 35.3990 -112.7590 58° Northeast 513 590 37,000  Level FlightAware
17:24 35.4480 -112.6590 59° Northeast 512 589 37,000  Level FlightAware
17:25 35.5040 -112.5480 58° Northeast 513 590 37,000  Level FlightAware
17:25 35.5530 -112.4490 59° Northeast 514 592 37,000  Level FlightAware
17:26 35.6020 -112.3510 58° Northeast 514 592 37,000  Level FlightAware
17:27 35.6440 -112.2640 59° Northeast 515 593 37,000  Level FlightAware
17:27 35.7050 -112.1400 59° Northeast 518 596 37,000  Level FlightAware
17:28 35.7480 -112.0540 58° Northeast 517 595 37,000  Level FlightAware
17:29 35.7780 -111.9910 60° Northeast 516 594 37,000  Level FlightAware
17:30 35.8880 -111.7650 59° Northeast 517 595 37,000  Level FlightAware
17:31 35.9300 -111.6790 59° Northeast 517 595 37,000  Level FlightAware
17:31 35.9720 -111.5930 59° Northeast 517 595 37,000  Level FlightAware
17:32 36.0140 -111.5070 59° Northeast 517 595 37,000  Level FlightAware
17:33 36.0560 -111.4210 59° Northeast 517 595 37,000  Level FlightAware
17:34 36.1080 -111.3130 59° Northeast 517 595 37,000  Level FlightAware
17:34 36.1500 -111.2270 59° Northeast 517 595 37,000  Level FlightAware
17:35 36.1920 -111.1400 59° Northeast 517 595 37,000  Level FlightAware
17:36 36.2340 -111.0540 59° Northeast 517 595 37,000  Level FlightAware
17:36 36.2760 -110.9670 59° Northeast 517 595 37,000  Level FlightAware
17:37 36.3280 -110.8590 59° Northeast 517 595 37,000  Level FlightAware
17:38 36.3700 -110.7730 59° Northeast 517 595 37,000  Level FlightAware
17:38 36.4120 -110.6860 59° Northeast 517 595 37,000  Level FlightAware
17:39 36.4540 -110.5990 59° Northeast 517 595 37,000  Level FlightAware
17:39 36.3331 -110.2544 59° Northeast 522 601 37,000  Level Denver Center
17:40 36.3767 -110.0439 76° East 520 598 37,000  Level Denver Center
17:41 36.4142 -109.8511 76° East 516 594 37,000  Level Denver Center
17:42 36.4456 -109.6886 76° East 509 586 37,000  Level Denver Center
17:43 36.4786 -109.5239 76° East 511 588 37,000  Level Denver Center
17:45 36.5164 -109.3322 76° East 510 587 37,000  Level Denver Center
17:46 36.5467 -109.1686 77° East 507 583 37,000  Level Denver Center
17:47 36.5836 -108.9775 76° East 507 583 37,000  Level Denver Center
17:48 36.6153 -108.8111 77° East 512 589 37,000  Level Denver Center
17:49 36.6517 -108.6169 77° East 513 590 37,000 -660 Level Denver Center
17:50 36.6833 -108.4481 77° East 519 597 35,700 -1,020 Descending Denver Center
17:51 36.7158 -108.2764 77° East 527 606 35,000 -360 Descending Denver Center
17:52 36.7550 -108.0742 76° East 536 617 35,000  Level Denver Center
17:53 36.7997 -107.9069 71° East 532 612 35,000  Level Denver Center
17:54 36.8522 -107.7167 71° East 522 601 35,000  Level Denver Center
17:55 36.8967 -107.5500 72° East 526 605 35,000  Level Denver Center
17:56 36.9503 -107.3550 71° East 530 610 35,000  Level Denver Center
17:57 36.9939 -107.1867 72° East 531 611 35,000  Level Denver Center
17:58 37.0469 -106.9875 71° East 540 621 35,000  Level Denver Center
17:59 37.0925 -106.8175 71° East 540 621 35,000  Level Denver Center
18:00 37.1442 -106.6161 72° East 541 623 35,000  Level Denver Center
18:01 37.1897 -106.4447 72° East 541 623 35,000  Level Denver Center
18:02 37.2414 -106.2456 72° East 536 617 35,000  Level Denver Center
18:08 37.5138 -105.1560 72° East 549 632 35,000  Level FlightAware ADS-B
18:09 37.5341 -105.0630 75° East 549 632 35,000  Level FlightAware ADS-B
18:09 37.5557 -104.9640 75° East 549 632 35,000  Level FlightAware ADS-B
18:10 37.5820 -104.8440 75° East 551 634 35,000  Level FlightAware ADS-B
18:10 37.6072 -104.7270 75° East 556 640 35,000  Level FlightAware ADS-B
18:12 37.6508 -104.5240 75° East 559 643 35,000  Level FlightAware ADS-B
18:12 37.6798 -104.3880 75° East 558 642 35,000  Level FlightAware ADS-B
18:13 37.7076 -104.2560 75° East 558 642 35,000  Level FlightAware ADS-B
18:13 37.7277 -104.1600 75° East 561 646 35,000  Level FlightAware ADS-B
18:14 37.7480 -104.0640 75° East 562 647 35,000  Level FlightAware ADS-B
18:14 37.7677 -103.9690 75° East 561 646 35,000  Level FlightAware ADS-B
18:15 37.7875 -103.8730 75° East 562 647 35,000  Level FlightAware ADS-B
18:15 37.8074 -103.7770 75° East 562 647 35,000  Level FlightAware ADS-B
18:16 37.8287 -103.6730 75° East 562 647 35,000  Level FlightAware ADS-B
18:17 37.8486 -103.5750 76° East 562 647 35,000  Level FlightAware ADS-B
18:17 37.8683 -103.4790 75° East 562 647 35,000  Level FlightAware ADS-B
18:18 37.8887 -103.3780 76° East 561 646 35,000  Level FlightAware ADS-B
18:18 37.9080 -103.2830 76° East 558 642 35,000 60 Level FlightAware ADS-B
18:19 37.9274 -103.1860 76° East 557 641 35,100 780 Climbing FlightAware ADS-B
18:19 37.9465 -103.0900 76° East 555 639 35,800 1,500 Climbing FlightAware ADS-B
18:20 37.9656 -102.9930 76° East 548 631 36,700 1,140 Climbing FlightAware ADS-B
18:20 37.9854 -102.8930 76° East 554 638 37,000 240 Climbing FlightAware ADS-B
18:21 38.0041 -102.7980 76° East 554 638 37,000  Level FlightAware ADS-B
18:21 38.0230 -102.7020 76° East 549 632 37,000  Level FlightAware ADS-B
18:22 38.0414 -102.6090 76° East 550 633 37,000  Level FlightAware ADS-B
18:22 38.0597 -102.5140 76° East 553 636 37,000  Level FlightAware ADS-B
18:23 38.0781 -102.4190 76° East 553 636 37,000  Level FlightAware ADS-B
18:23 38.0966 -102.3230 76° East 554 638 37,000  Level FlightAware ADS-B
18:24 38.1148 -102.2270 76° East 555 639 37,000  Level FlightAware ADS-B
18:24 38.1342 -102.1260 76° East 555 639 37,000  Level FlightAware ADS-B
18:25 38.1727 -101.9230 76° East 555 639 37,000  Level FlightAware ADS-B
18:26 38.1909 -101.8270 76° East 556 640 37,000  Level FlightAware ADS-B
18:27 38.2136 -101.6408 76° East 550 633 37,000  Level Kansas City Center
18:28 38.2486 -101.4569 76° East 554 638 37,000  Level Kansas City Center
18:29 38.2875 -101.2453 77° East 552 635 37,000  Level Denver Center
18:30 38.3208 -101.0608 77° East 555 639 37,000  Level Denver Center
18:31 38.3542 -100.8761 77° East 556 640 37,000  Level Denver Center
18:32 38.3936 -100.6600 77° East 557 641 37,000  Level Denver Center
18:33 38.4264 -100.4756 77° East 556 640 37,000  Level Denver Center
18:34 38.4647 -100.2592 77° East 558 642 37,000  Level Denver Center
18:35 38.4961 -100.0733 78° East 557 641 37,000  Level Denver Center
18:36 38.5339 -99.8569 77° East 558 642 37,000  Level Denver Center
18:37 38.5650 -99.6725 78° East 556 640 37,000  Level Denver Center
18:38 38.5961 -99.4861 78° East 558 642 37,000  Level Denver Center
18:39 38.6281 -99.2817 79° East 557 641 37,000  Level Kansas City Center
18:40 38.6619 -99.0864 77° East 560 644 37,000  Level Kansas City Center
18:41 38.6942 -98.8903 78° East 561 646 37,000  Level Kansas City Center
18:42 38.7306 -98.6575 79° East 552 635 37,000  Level Kansas City Center
18:48 38.9170 -97.5380 79° East 559 643 37,000  Level FlightAware
18:49 38.9360 -97.4130 79° East 559 643 37,000  Level FlightAware
18:49 38.9510 -97.3100 79° East 559 643 37,000  Level FlightAware
18:50 38.9720 -97.1720 79° East 559 643 37,000  Level FlightAware
18:51 38.9890 -97.0610 79° East 559 643 37,000  Level FlightAware
18:51 39.0060 -96.9490 79° East 559 643 37,000  Level FlightAware
18:52 39.0220 -96.8380 79° East 559 643 37,000  Level FlightAware
18:53 39.0390 -96.7270 79° East 559 643 37,000  Level FlightAware
18:54 39.0600 -96.5880 79° East 559 643 37,000  Level FlightAware
18:54 39.0770 -96.4770 79° East 559 643 37,000  Level FlightAware
18:55 39.0940 -96.3660 79° East 559 643 37,000  Level FlightAware
18:56 39.1100 -96.2550 79° East 559 643 37,000  Level FlightAware
18:56 39.1520 -95.9100 81° East 550 633 37,000  Level FlightAware
18:57 39.1700 -95.7720 80° East 550 633 37,000  Level FlightAware
19:01 39.2430 -95.2300 80° East 548 631 37,000  Level FlightAware
19:03 39.2950 -94.8250 80° East 547 629 37,000  Level FlightAware
19:04 39.3140 -94.6740 81° East 547 629 37,000  Level FlightAware
19:05 39.3660 -94.2890 80° East 548 631 37,000  Level FlightAware
19:05 39.3840 -94.1490 81° East 548 631 37,000  Level FlightAware
19:06 39.4010 -94.0180 80° East 548 631 37,000  Level FlightAware
19:07 39.4180 -93.8900 80° East 548 631 37,000  Level FlightAware
19:08 39.4360 -93.7430 81° East 548 631 37,000  Level FlightAware
19:08 39.4530 -93.6140 80° East 547 629 37,000  Level FlightAware
19:09 39.4700 -93.4700 81° East 547 629 37,000  Level FlightAware
19:10 39.4860 -93.3420 81° East 546 628 37,000  Level FlightAware
19:10 39.5040 -93.1950 81° East 545 627 37,000  Level FlightAware
19:11 39.5190 -93.0680 81° East 544 626 37,000  Level FlightAware
19:12 39.5350 -92.9380 81° East 544 626 37,000  Level FlightAware
19:13 39.5550 -92.7660 81° East 543 625 37,000  Level FlightAware
19:13 39.5720 -92.6240 81° East 541 623 37,000  Level FlightAware
19:14 39.5870 -92.4930 82° East 537 618 37,000  Level FlightAware
19:15 39.6030 -92.3510 82° East 533 613 37,000  Level FlightAware
19:15 39.6150 -92.2460 82° East 532 612 37,000  Level FlightAware
19:16 39.6320 -92.0930 82° East 530 610 37,000  Level FlightAware
19:17 39.6470 -91.9560 82° East 528 608 37,000  Level FlightAware
19:18 39.6620 -91.8190 82° East 528 608 37,000  Level FlightAware
19:18 39.6750 -91.6920 82° East 527 606 37,000  Level FlightAware
19:19 39.6870 -91.5800 82° East 527 606 37,000  Level FlightAware
19:20 39.7010 -91.4460 82° East 528 608 37,000  Level FlightAware
19:20 39.7160 -91.3090 82° East 528 608 37,000  Level FlightAware
19:21 39.7280 -91.1910 82° East 529 609 37,000  Level FlightAware
19:22 39.7440 -91.0330 82° East 530 610 37,000  Level FlightAware
19:23 39.7610 -90.8560 83° East 531 611 37,000  Level FlightAware
19:23 39.7740 -90.7270 82° East 531 611 37,000  Level FlightAware
19:24 39.7860 -90.5980 83° East 531 611 37,000  Level FlightAware
19:25 39.8040 -90.4130 83° East 529 609 37,000  Level FlightAware
19:26 39.8150 -90.2920 83° East 528 608 37,000  Level FlightAware
19:26 39.8270 -90.1660 83° East 527 606 37,000  Level FlightAware
19:27 39.8410 -90.0090 83° East 525 604 37,000  Level FlightAware
19:28 39.8520 -89.8840 83° East 523 602 37,000  Level FlightAware
19:29 39.8630 -89.7610 83° East 521 600 37,000  Level FlightAware
19:29 39.8700 -89.6200 86° East 517 595 37,000  Level FlightAware
19:30 39.8720 -89.4880 89° East 515 593 37,000 300 Level FlightAware
19:31 39.8720 -89.3520 90° East 517 595 37,500 840 Climbing FlightAware
19:31 39.8720 -89.2320 90° East 519 597 38,200 1,020 Climbing FlightAware
19:32 39.8730 -89.1040 89° East 519 597 38,900 600 Climbing FlightAware
19:33 39.8730 -88.9820 90° East 523 602 39,000 60 Climbing FlightAware
19:33 39.8720 -88.8390 90° East 520 598 39,000  Level FlightAware
19:34 39.8720 -88.6980 90° East 520 598 39,000  Level FlightAware
19:35 39.8720 -88.5720 90° East 519 597 39,000  Level FlightAware
19:36 39.8710 -88.4430 91° East 518 596 39,000  Level FlightAware
19:36 39.8700 -88.3080 91° East 516 594 39,000  Level FlightAware
19:37 39.8700 -88.1820 90° East 516 594 39,000  Level FlightAware
19:38 39.8770 -88.0450 86° East 514 592 39,000  Level FlightAware
19:38 39.8940 -87.9210 80° East 511 588 39,000  Level FlightAware
19:39 39.9230 -87.7920 74° East 509 586 39,000  Level FlightAware
19:40 39.9540 -87.6870 69° East 509 586 39,000  Level FlightAware
19:40 39.9880 -87.5640 70° East 508 585 39,000  Level FlightAware
19:41 40.0370 -87.3880 70° East 509 586 39,000  Level FlightAware
19:42 40.0680 -87.2790 70° East 510 587 39,000  Level FlightAware
19:43 40.1010 -87.1620 70° East 511 588 39,000  Level FlightAware
19:44 40.1390 -87.0280 70° East 512 589 39,000  Level FlightAware
19:44 40.1690 -86.9190 70° East 512 589 39,000  Level FlightAware
19:45 40.2080 -86.7830 69° East 512 589 39,000  Level FlightAware
19:46 40.2390 -86.6680 71° East 513 590 39,000  Level FlightAware
19:46 40.2690 -86.5600 70° East 515 593 39,000  Level FlightAware
19:47 40.3080 -86.4160 70° East 514 592 39,000  Level FlightAware
19:48 40.3400 -86.2970 71° East 515 593 39,000  Level FlightAware
19:48 40.3740 -86.1700 71° East 514 592 39,000  Level FlightAware
19:49 40.4050 -86.0530 71° East 516 594 39,000  Level FlightAware
19:50 40.4380 -85.9310 70° East 517 595 39,000  Level FlightAware
19:50 40.4650 -85.8290 71° East 518 596 39,000  Level FlightAware
19:51 40.5040 -85.6800 71° East 519 597 39,000  Level FlightAware
19:52 40.5360 -85.5580 71° East 518 596 39,000  Level FlightAware
19:53 40.5730 -85.4170 71° East 518 596 39,000  Level FlightAware
19:54 40.6120 -85.2650 71° East 520 598 39,000  Level FlightAware
19:54 40.6540 -85.1020 71° East 520 598 39,000  Level FlightAware
19:55 40.6850 -84.9800 71° East 522 601 39,000  Level FlightAware
19:56 40.7220 -84.8360 71° East 519 597 39,000  Level FlightAware
19:57 40.7500 -84.7240 72° East 519 597 39,000  Level FlightAware
19:57 40.7850 -84.5860 71° East 519 597 39,000  Level FlightAware
19:58 40.8160 -84.4650 71° East 518 596 39,000  Level FlightAware
19:58 40.8380 -84.3740 72° East 518 596 39,000  Level FlightAware
19:59 40.8680 -84.2550 72° East 519 597 39,000  Level FlightAware
20:00 40.8980 -84.1340 72° East 519 597 39,000  Level FlightAware
20:01 40.9310 -83.9990 72° East 520 598 39,000  Level FlightAware
20:01 40.9620 -83.8750 72° East 521 600 39,000  Level FlightAware
20:02 40.9940 -83.7410 72° East 520 598 39,000  Level FlightAware
20:03 41.0240 -83.6190 72° East 520 598 39,000  Level FlightAware
20:03 41.0530 -83.4970 72° East 521 600 39,000  Level FlightAware
20:04 41.0860 -83.3600 72° East 521 600 39,000  Level FlightAware
20:05 41.1140 -83.2430 72° East 521 600 39,000  Level FlightAware
20:05 41.1440 -83.1210 72° East 522 601 39,000  Level FlightAware
20:06 41.1760 -82.9830 73° East 522 601 39,000  Level FlightAware
20:07 41.2060 -82.8580 72° East 523 602 39,000  Level FlightAware
20:08 41.2380 -82.7220 73° East 523 602 39,000  Level FlightAware
20:08 41.2670 -82.5990 73° East 523 602 39,000  Level FlightAware
20:09 41.2970 -82.4690 73° East 522 601 39,000  Level FlightAware
20:10 41.3280 -82.3360 73° East 521 600 39,000  Level FlightAware
20:10 41.3560 -82.2130 73° East 519 597 39,000  Level FlightAware
20:11 41.3920 -82.0800 70° East 516 594 39,000  Level FlightAware
20:12 41.4240 -81.9630 70° East 514 592 39,000  Level FlightAware
20:12 41.4620 -81.8300 69° East 512 589 39,000  Level FlightAware
20:13 41.4950 -81.7120 69° East 512 589 39,000  Level FlightAware
20:14 41.5300 -81.5920 69° East 511 588 39,000  Level FlightAware
20:15 41.5660 -81.4640 69° East 511 588 39,000  Level FlightAware
20:15 41.6000 -81.3450 69° East 512 589 39,000  Level FlightAware
20:16 41.6380 -81.2100 69° East 512 589 39,000  Level FlightAware
20:17 41.6720 -81.0910 69° East 513 590 39,000  Level FlightAware
20:17 41.7080 -80.9600 70° East 514 592 39,000  Level FlightAware
20:18 41.7430 -80.8360 69° East 515 593 39,000  Level FlightAware
20:19 41.7670 -80.6980 77° East 521 600 39,000  Level FlightAware
20:19 41.7740 -80.5680 86° East 523 602 39,000  Level FlightAware
20:20 41.7780 -80.4260 88° East 523 602 39,000  Level FlightAware
20:21 41.7810 -80.3140 88° East 522 601 39,000  Level FlightAware
20:22 41.7840 -80.1650 88° East 521 600 39,000  Level FlightAware
20:22 41.7870 -80.0190 88° East 521 600 39,000  Level FlightAware
20:23 41.7890 -79.8920 89° East 521 600 39,000  Level FlightAware
20:24 41.7910 -79.7470 89° East 520 598 39,000  Level FlightAware
20:24 41.7930 -79.6210 89° East 519 597 39,000  Level FlightAware
20:25 41.7940 -79.5240 89° East 519 597 39,000  Level FlightAware
20:26 41.7960 -79.3610 89° East 517 595 39,000  Level FlightAware
20:26 41.7980 -79.2380 89° East 516 594 39,000  Level FlightAware
20:27 41.7990 -79.1110 89° East 513 590 39,000  Level FlightAware
20:28 41.8010 -78.9670 89° East 510 587 39,000  Level FlightAware
20:29 41.8030 -78.8330 89° East 507 583 39,000  Level FlightAware
20:29 41.8050 -78.6870 89° East 503 579 39,000  Level FlightAware
20:30 41.8070 -78.5630 89° East 500 575 39,000  Level FlightAware
20:31 41.8080 -78.4190 89° East 495 570 39,000 -360 Level FlightAware
20:31 41.8090 -78.3050 89° East 490 564 38,500 -1,620 Descending FlightAware
20:32 41.8100 -78.1940 89° East 511 588 36,900 -1,800 Descending FlightAware
20:33 41.8110 -78.0660 89° East 511 588 36,100 -1,140 Descending FlightAware
20:33 41.8120 -77.9260 89° East 508 585 35,300 -780 Descending FlightAware
20:34 41.8120 -77.7810 90° East 508 585 35,000 -240 Descending FlightAware
20:35 41.8130 -77.6580 89° East 512 589 35,000  Level FlightAware
20:36 41.8090 -77.5430 93° East 516 594 35,000  Level FlightAware
20:36 41.7770 -77.3900 106° East 520 598 35,000  Level FlightAware
20:37 41.7450 -77.2700 110° East 519 597 35,000  Level FlightAware
20:38 41.7080 -77.1350 110° East 518 596 35,000  Level FlightAware
20:38 41.6955 -77.0882 110° East 517 595 35,000  Level FlightAware ADS-B
20:38 41.6703 -76.9953 110° East 516 594 35,000  Level FlightAware ADS-B
20:39 41.6444 -76.8997 110° East 515 593 35,000  Level FlightAware ADS-B
20:39 41.6179 -76.8025 110° East 514 592 35,000  Level FlightAware ADS-B
20:40 41.5930 -76.7115 110° East 514 592 35,000  Level FlightAware ADS-B
20:40 41.5740 -76.6420 110° East 512 589 35,000  Level FlightAware
20:41 41.5590 -76.5881 110° East 513 590 35,000  Level FlightAware ADS-B
20:41 41.5345 -76.4994 110° East 512 589 35,000  Level FlightAware ADS-B
20:42 41.5098 -76.4103 110° East 511 588 35,000 -900 Level FlightAware ADS-B
20:42 41.4834 -76.3150 110° East 515 593 34,100 -1,860 Descending FlightAware ADS-B
20:43 41.4583 -76.2259 111° Southeast 509 586 33,100 -1,920 Descending FlightAware ADS-B
20:43 41.4334 -76.1377 111° Southeast 504 580 32,200 -1,920 Descending FlightAware ADS-B
20:44 41.4087 -76.0503 111° Southeast 497 572 31,200 -1,980 Descending FlightAware ADS-B
20:44 41.3836 -75.9615 111° Southeast 491 565 30,200 -1,860 Descending FlightAware ADS-B
20:45 41.3560 -75.8647 111° Southeast 483 556 29,200 -1,860 Descending FlightAware ADS-B
20:45 41.3313 -75.7779 111° Southeast 474 545 28,200 -1,800 Descending FlightAware ADS-B
20:46 41.3079 -75.6975 111° Southeast 462 532 27,400 -1,620 Descending FlightAware ADS-B
20:46 41.2829 -75.6186 113° Southeast 451 519 26,600 -1,680 Descending FlightAware ADS-B
20:47 41.2578 -75.5432 114° Southeast 440 506 25,700 -1,680 Descending FlightAware ADS-B
20:47 41.2320 -75.4677 114° Southeast 429 494 24,900 -1,620 Descending FlightAware ADS-B
20:48 41.2080 -75.3968 114° Southeast 419 482 24,100 -1,740 Descending FlightAware ADS-B
20:48 41.1843 -75.3275 114° Southeast 410 472 23,200 -1,260 Descending FlightAware ADS-B
20:49 41.1596 -75.2550 114° Southeast 397 457 22,800 -600 Descending FlightAware ADS-B
20:49 41.1367 -75.1882 114° Southeast 398 458 22,600 -540 Descending FlightAware ADS-B
20:50 41.1136 -75.1210 115° Southeast 401 461 22,300 -540 Descending FlightAware ADS-B
20:50 41.0896 -75.0510 114° Southeast 403 464 22,100 -540 Descending FlightAware ADS-B
20:51 41.0657 -74.9824 115° Southeast 403 464 21,800 -540 Descending FlightAware ADS-B
20:51 41.0420 -74.9141 115° Southeast 402 463 21,600 -480 Descending FlightAware ADS-B
20:52 41.0273 -74.8676 113° Southeast 399 459 21,400 -540 Descending FlightAware ADS-B
20:52 41.0191 -74.8303 106° East 395 455 21,300 -420 Descending FlightAware ADS-B
20:52 41.0130 -74.7888 101° East 392 451 21,200 -360 Descending FlightAware ADS-B
20:53 41.0083 -74.7486 99° East 391 450 21,100 -600 Descending FlightAware ADS-B
20:53 41.0047 -74.7169 99° East 391 450 20,900 -600 Descending FlightAware ADS-B
20:53 41.0003 -74.6749 98° East 390 449 20,800 -420 Descending FlightAware ADS-B
20:53 40.9965 -74.6404 98° East 389 448 20,700 -420 Descending FlightAware ADS-B
20:54 40.9919 -74.5987 98° East 388 447 20,600 -420 Descending FlightAware ADS-B
20:54 40.9885 -74.5687 99° East 386 444 20,500 -600 Descending FlightAware ADS-B
20:54 40.9804 -74.4976 99° East 383 441 20,200 -540 Descending FlightAware ADS-B
20:55 40.9721 -74.4272 99° East 375 432 20,000 -420 Descending FlightAware ADS-B
20:55 40.9639 -74.3588 99° East 349 402 19,800 -360 Descending FlightAware ADS-B
20:56 40.9595 -74.3215 99° East 335 386 19,700 -780 Descending FlightAware ADS-B
20:56 40.9560 -74.2925 99° East 330 380 19,400 -1,140 Descending FlightAware ADS-B
20:56 40.9503 -74.2444 99° East 332 382 19,000 -480 Descending FlightAware ADS-B
20:57 40.9428 -74.1811 99° East 346 398 19,000  Level FlightAware ADS-B
20:57 40.9417 -74.1723 99° East 346 398 19,000  Level FlightAware ADS-B
20:57 40.9390 -74.1508 99° East 348 400 19,000 -360 Level FlightAware ADS-B
20:57 40.9363 -74.1370 105° East 350 403 18,900 -1,500 Descending FlightAware ADS-B
20:57 40.9358 -74.1344 104° East 351 404 18,800 -2,220 Descending FlightAware ADS-B
20:57 40.9306 -74.1154 110° East 355 409 18,500 -2,160 Descending FlightAware ADS-B
20:58 40.9270 -74.1055 116° Southeast 358 412 18,300 -2,400 Descending FlightAware ADS-B
20:58 40.9193 -74.0872 119° Southeast 360 414 17,900 -2,640 Descending FlightAware ADS-B
20:58 40.8992 -74.0457 123° Southeast 358 412 16,900 -2,820 Descending FlightAware ADS-B
20:58 40.8921 -74.0319 124° Southeast 354 407 16,500 -1,980 Descending FlightAware ADS-B
20:59 40.8712 -73.9914 124° Southeast 346 398 15,900 -1,200 Descending FlightAware ADS-B
20:59 40.8647 -73.9787 124° Southeast 340 391 15,900 -240 Level FlightAware ADS-B
20:59 40.8442 -73.9387 124° Southeast 332 382 15,800 -720 Descending FlightAware ADS-B
20:59 40.8355 -73.9215 124° Southeast 330 380 15,500 -1,620 Descending FlightAware ADS-B
21:00 40.8183 -73.8874 124° Southeast 329 379 15,000 -1,500 Descending FlightAware ADS-B
21:00 40.8082 -73.8670 123° Southeast 328 377 14,700 -1,560 Descending FlightAware ADS-B
21:00 40.7861 -73.8127 118° Southeast 330 380 13,900 -1,500 Descending FlightAware ADS-B
21:00 40.7849 -73.8098 119° Southeast 324 373 13,900 -1,500 Level FlightAware ADS-B
21:01 40.7610 -73.7501 118° Southeast 320 368 13,000 -1,560 Descending FlightAware ADS-B
21:01 40.7504 -73.7239 118° Southeast 321 369 12,600 -1,380 Descending FlightAware ADS-B
21:02 40.7160 -73.6890 142° Southeast 308 354 11,900 -1,500 Descending FlightAware
21:02 40.7019 -73.6832 163° South 321 369 11,600 -2,160 Descending FlightAware ADS-B
21:02 40.6671 -73.6706 165° South 312 359 10,700 -1,680 Descending FlightAware ADS-B
21:03 40.6168 -73.6534 165° South 300 345 9,900 -1,560 Descending FlightAware ADS-B
21:03 40.5934 -73.6457 166° South 304 350 9,300 -2,040 Descending FlightAware ADS-B
21:03 40.5720 -73.6386 166° South 306 352 8,800 -1,800 Descending FlightAware ADS-B
21:04 40.5596 -73.6347 167° South 307 353 8,600 -1,200 Descending FlightAware ADS-B
21:04 40.5517 -73.6328 170° South 307 353 8,500 -1,740 Descending FlightAware ADS-B
21:04 40.5399 -73.6326 179° South 306 352 8,200 -2,220 Descending FlightAware ADS-B
21:04 40.5354 -73.6337 191° South 305 351 8,100 -1,380 Descending FlightAware ADS-B
21:04 40.5282 -73.6362 195° South 302 348 8,000 -1,020 Descending FlightAware ADS-B
21:04 40.5196 -73.6405 201° Southwest 299 344 7,900 -1,620 Descending FlightAware ADS-B
21:04 40.4982 -73.6525 203° Southwest 298 343 7,400 -1,680 Descending FlightAware ADS-B
21:05 40.4789 -73.6635 203° Southwest 296 341 7,000 -1,800 Descending FlightAware ADS-B
21:05 40.4596 -73.6747 204° Southwest 296 341 6,500 -2,040 Descending FlightAware ADS-B
21:05 40.4377 -73.6879 205° Southwest 294 338 5,900 -1,980 Descending FlightAware ADS-B
21:05 40.4178 -73.7004 206° Southwest 287 330 5,400 -1,620 Descending FlightAware ADS-B
21:06 40.4096 -73.7063 209° Southwest 282 325 5,300 -1,200 Descending FlightAware ADS-B
21:06 40.4060 -73.7092 212° Southwest 279 321 5,200 -2,040 Descending FlightAware ADS-B
21:06 40.4010 -73.7148 220° Southwest 274 315 5,000 -2,040 Descending FlightAware ADS-B
21:06 40.3981 -73.7190 228° Southwest 270 311 4,900 -1,680 Descending FlightAware ADS-B
21:06 40.3931 -73.7292 237° Southwest 263 303 4,700 -1,680 Descending FlightAware ADS-B
21:06 40.3916 -73.7336 246° West 261 300 4,600 -2,040 Descending FlightAware ADS-B
21:06 40.3859 -73.7605 254° West 251 289 4,000 -2,100 Descending FlightAware ADS-B
21:06 40.3864 -73.7689 274° West 248 285 3,800 -1,500 Descending FlightAware ADS-B
21:07 40.3928 -73.7953 288° West 243 280 3,400 -1,260 Descending FlightAware ADS-B
21:07 40.4012 -73.8221 292° West 239 275 3,000 -1,140 Descending FlightAware ADS-B
21:07 40.4163 -73.8480 307° West 222 255 2,600 -840 Descending FlightAware ADS-B
21:08 40.4430 -73.8590 343° North 174 200 2,200 -780 Descending FlightAware
21:08 40.4670 -73.8650 349° North 158 182 1,800 -480 Descending FlightAware
21:09 40.4820 -73.8680 351° North 155 178 1,800  Level FlightAware
21:09 40.4950 -73.8630 16° North 144 166 1,800  Level FlightAware
21:10 40.5110 -73.8510 30° Northeast 145 167 1,800  Level FlightAware ADS-B
21:10 40.5300 -73.8360 31° Northeast 147 169 1,800  Level FlightAware
21:11 40.5440 -73.8240 33° Northeast 145 167 1,800 -360 Level FlightAware
21:11 40.5620 -73.8100 31° Northeast 140 161 1,500 -660 Descending FlightAware
21:11 40.5750 -73.7990 33° Northeast 124 143 1,200 -780 Descending FlightAware
21:12 40.5810 -73.7940 32° Northeast 114 131 1,000 -720 Descending FlightAware
21:12 40.5940 -73.7840 30° Northeast 110 127 700 -660 Descending FlightAware
21:13 40.6060 -73.7740 32° Northeast 115 132 400 -660 Descending FlightAware
21:13 40.6190 -73.7630 33° Northeast 119 137 100 -600 Descending FlightAware